Time;durP1;ratioP1;P1;durP2;ratioP2;P2;SDS_P1;SDS_P2;PMS_P1;PMS_P2;Temp;Humidity;BMP_temperature;BMP_pressure;BME280_temperature;BME280_humidity;BME280_pressure;Samples;Min_cycle;Max_cycle;Signal;HPM_P1;HPM_P2
2021/10/25 00:01:17;;;;;;;;;;;19.10;39.20;;;;;;8233498;28;19918;-54
2021/10/25 00:05:18;;;;;;;;;;;19.10;39.30;;;;;;8232693;28;19950;-51
2021/10/25 00:09:18;;;;;;;;;;;19.10;39.20;;;;;;8232986;28;20394;-51
2021/10/25 00:13:19;;;;;;;;;;;19.10;39.20;;;;;;8233188;28;19922;-53
2021/10/25 00:17:19;;;;;;;;;;;19.10;39.20;;;;;;8232702;28;19914;-52
2021/10/25 00:21:20;;;;;;;;;;;19.10;39.20;;;;;;8232811;28;19956;-52
2021/10/25 00:25:20;;;;;;;;;;;19.10;39.20;;;;;;8235475;28;19985;-54
2021/10/25 00:29:21;;;;;;;;;;;19.10;39.30;;;;;;8238620;28;20394;-54
2021/10/25 00:33:21;;;;;;;;;;;19.10;39.30;;;;;;8239031;28;20708;-53
2021/10/25 00:37:22;;;;;;;;;;;19.10;39.30;;;;;;8239415;28;19910;-49
2021/10/25 00:41:22;;;;;;;;;;;19.10;39.30;;;;;;8238453;28;19954;-52
2021/10/25 00:45:22;;;;;;;;;;;19.10;39.30;;;;;;8238649;28;19992;-53
2021/10/25 00:49:23;;;;;;;;;;;19.10;39.30;;;;;;8238503;28;19964;-53
2021/10/25 00:53:24;;;;;;;;;;;19.10;39.30;;;;;;8238097;28;19922;-51
2021/10/25 00:57:25;;;;;;;;;;;19.00;39.20;;;;;;8238463;28;20346;-53
2021/10/25 01:01:25;;;;;;;;;;;19.00;39.20;;;;;;8237954;28;20282;-54
2021/10/25 01:05:26;;;;;;;;;;;19.00;39.20;;;;;;8236882;28;19929;-53
2021/10/25 01:09:26;;;;;;;;;;;19.00;39.20;;;;;;8237738;28;19937;-54
2021/10/25 01:13:27;;;;;;;;;;;19.00;39.20;;;;;;8237753;28;19922;-54
2021/10/25 01:17:28;;;;;;;;;;;19.00;39.20;;;;;;8237482;28;19910;-52
2021/10/25 01:21:29;;;;;;;;;;;19.00;39.30;;;;;;8237777;28;19957;-53
2021/10/25 01:25:29;;;;;;;;;;;19.00;39.30;;;;;;8237502;28;19921;-51
2021/10/25 01:29:30;;;;;;;;;;;19.00;39.30;;;;;;8236987;28;20424;-54
2021/10/25 01:33:33;;;;;;;;;;;19.00;39.20;;;;;;8237091;28;19918;-52
2021/10/25 01:37:33;;;;;;;;;;;19.00;39.20;;;;;;8236813;28;19921;-52
2021/10/25 01:41:34;;;;;;;;;;;19.00;39.20;;;;;;8236601;28;20280;-51
2021/10/25 01:45:35;;;;;;;;;;;19.00;39.30;;;;;;8237304;28;19960;-53
2021/10/25 01:49:35;;;;;;;;;;;19.00;39.80;;;;;;8236745;28;19946;-50
2021/10/25 01:53:37;;;;;;;;;;;18.90;39.20;;;;;;8235919;28;19922;-53
2021/10/25 01:57:37;;;;;;;;;;;18.90;39.20;;;;;;8236938;28;20387;-54
2021/10/25 02:01:38;;;;;;;;;;;18.90;39.20;;;;;;8236398;28;19921;-51
2021/10/25 02:05:39;;;;;;;;;;;18.90;39.20;;;;;;8235864;28;19914;-51
2021/10/25 02:09:39;;;;;;;;;;;18.90;39.20;;;;;;8236355;28;19916;-52
2021/10/25 02:13:41;;;;;;;;;;;18.90;39.20;;;;;;8236235;28;20276;-51
2021/10/25 02:17:41;;;;;;;;;;;18.90;39.20;;;;;;8235487;28;19921;-53
2021/10/25 02:21:42;;;;;;;;;;;18.90;39.20;;;;;;8235754;28;20000;-51
2021/10/25 02:25:45;;;;;;;;;;;18.90;39.20;;;;;;8235800;28;19910;-53
2021/10/25 02:29:46;;;;;;;;;;;18.90;39.20;;;;;;8235081;28;19920;-54
2021/10/25 02:33:47;;;;;;;;;;;18.90;39.20;;;;;;8235605;28;19918;-54
2021/10/25 02:37:47;;;;;;;;;;;18.90;39.20;;;;;;8235338;28;19917;-51
2021/10/25 02:41:48;;;;;;;;;;;18.90;39.20;;;;;;8234738;28;19914;-52
2021/10/25 02:45:48;;;;;;;;;;;18.90;39.20;;;;;;8234980;28;20424;-51
2021/10/25 02:49:49;;;;;;;;;;;18.90;39.20;;;;;;8234319;28;19914;-48
2021/10/25 02:53:49;;;;;;;;;;;18.90;39.20;;;;;;8234536;28;20398;-50
2021/10/25 02:57:50;;;;;;;;;;;18.90;39.30;;;;;;8234579;28;19914;-51
2021/10/25 03:01:50;;;;;;;;;;;18.80;39.50;;;;;;8234798;28;20008;-51
2021/10/25 03:05:51;;;;;;;;;;;18.80;39.20;;;;;;8233390;28;19914;-54
2021/10/25 03:09:51;;;;;;;;;;;18.80;39.10;;;;;;8234431;28;19917;-52
2021/10/25 03:13:53;;;;;;;;;;;18.80;39.20;;;;;;8234223;28;20332;-53
2021/10/25 03:17:54;;;;;;;;;;;18.80;39.80;;;;;;8233583;28;20012;-54
2021/10/25 03:21:54;;;;;;;;;;;18.80;39.30;;;;;;8234193;28;19914;-53
2021/10/25 03:25:55;;;;;;;;;;;18.80;39.30;;;;;;8233775;28;19911;-54
2021/10/25 03:29:55;;;;;;;;;;;18.80;39.30;;;;;;8233313;28;19914;-51
2021/10/25 03:33:56;;;;;;;;;;;18.90;39.30;;;;;;8231974;28;20300;-54
2021/10/25 03:37:57;;;;;;;;;;;18.90;39.30;;;;;;8233769;28;19914;-51
2021/10/25 03:41:59;;;;;;;;;;;18.90;39.30;;;;;;8233069;28;19941;-54
2021/10/25 03:46:11;;;;;;;;;;;18.90;39.30;;;;;;8233700;28;19911;-52
2021/10/25 03:50:19;;;;;;;;;;;18.90;39.30;;;;;;8233107;28;19921;-51
2021/10/25 03:54:43;;;;;;;;;;;19.00;39.30;;;;;;8233754;28;20001;-53
2021/10/25 03:59:05;;;;;;;;;;;19.00;39.30;;;;;;8235442;28;19937;-50
2021/10/25 04:29:00;;;;;;;;;;;19.10;39.20;;;;;;8241812;28;20344;-51
2021/10/25 04:33:01;;;;;;;;;;;19.00;39.20;;;;;;8238548;28;19922;-51
2021/10/25 04:37:02;;;;;;;;;;;19.00;39.10;;;;;;8239031;28;19914;-50
2021/10/25 04:41:03;;;;;;;;;;;19.00;39.10;;;;;;8238975;28;19914;-53
2021/10/25 04:45:04;;;;;;;;;;;19.00;39.10;;;;;;8238143;28;20066;-52
2021/10/25 04:49:04;;;;;;;;;;;19.00;39.10;;;;;;8239006;28;19914;-51
2021/10/25 04:53:05;;;;;;;;;;;19.00;39.10;;;;;;8238665;28;20060;-54
2021/10/25 04:57:05;;;;;;;;;;;19.00;39.00;;;;;;8237896;28;19997;-54
2021/10/25 05:01:06;;;;;;;;;;;18.90;39.00;;;;;;8238638;28;20368;-54
2021/10/25 05:05:07;;;;;;;;;;;18.90;39.10;;;;;;8237648;28;19910;-48
2021/10/25 05:09:07;;;;;;;;;;;18.90;39.20;;;;;;8238162;28;19921;-54
2021/10/25 05:13:08;;;;;;;;;;;18.90;39.20;;;;;;8237307;28;19922;-51
2021/10/25 05:17:09;;;;;;;;;;;19.00;39.20;;;;;;8237193;28;19941;-53
2021/10/25 05:21:09;;;;;;;;;;;19.00;39.30;;;;;;8237803;28;19976;-51
2021/10/25 05:25:09;;;;;;;;;;;19.00;39.30;;;;;;8237663;28;20439;-52
2021/10/25 05:29:10;;;;;;;;;;;19.00;39.20;;;;;;8237131;28;19911;-53
2021/10/25 05:33:11;;;;;;;;;;;19.00;39.20;;;;;;8237431;28;20331;-53
2021/10/25 05:37:11;;;;;;;;;;;19.10;39.20;;;;;;8237096;28;20275;-52
2021/10/25 05:41:13;;;;;;;;;;;19.10;39.20;;;;;;8236741;28;19920;-53
2021/10/25 05:45:14;;;;;;;;;;;19.10;39.10;;;;;;8236884;28;20008;-55
2021/10/25 05:49:14;;;;;;;;;;;19.10;39.10;;;;;;8236919;28;19914;-51
2021/10/25 05:53:15;;;;;;;;;;;19.10;39.10;;;;;;8251274;28;19922;-51
2021/10/25 05:57:16;;;;;;;;;;;19.00;39.00;;;;;;8236783;28;19914;-52
2021/10/25 06:01:19;;;;;;;;;;;19.10;39.10;;;;;;8236455;28;19914;-51
2021/10/25 06:05:21;;;;;;;;;;;19.00;39.00;;;;;;8235849;28;19910;-51
2021/10/25 06:09:21;;;;;;;;;;;19.00;39.00;;;;;;8236309;28;19910;-51
2021/10/25 06:13:27;;;;;;;;;;;19.00;39.00;;;;;;8236060;28;20323;-53
2021/10/25 06:21:34;;;;;;;;;;;18.90;39.00;;;;;;8241883;28;19914;-50
2021/10/25 06:25:35;;;;;;;;;;;18.90;39.00;;;;;;8235591;28;19969;-49
2021/10/25 06:29:36;;;;;;;;;;;18.90;39.00;;;;;;8235547;28;19941;-51
2021/10/25 06:33:42;;;;;;;;;;;18.90;39.00;;;;;;8235226;28;20324;-52
2021/10/25 06:37:50;;;;;;;;;;;18.90;39.10;;;;;;8250274;28;20296;-51
2021/10/25 06:41:51;;;;;;;;;;;18.90;39.20;;;;;;8234691;28;20105;-51
2021/10/25 06:45:52;;;;;;;;;;;19.00;39.20;;;;;;8235003;28;19922;-49
2021/10/25 06:49:52;;;;;;;;;;;19.00;39.30;;;;;;8235062;28;19910;-51
2021/10/25 06:53:53;;;;;;;;;;;19.00;39.30;;;;;;8234411;28;19922;-52
2021/10/25 06:57:53;;;;;;;;;;;19.00;39.30;;;;;;8234686;28;19914;-49
2021/10/25 07:01:54;;;;;;;;;;;19.10;39.30;;;;;;8234600;28;19917;-49
2021/10/25 07:05:55;;;;;;;;;;;19.00;39.40;;;;;;8233221;28;19949;-50
2021/10/25 07:09:57;;;;;;;;;;;19.00;39.40;;;;;;8234479;28;19914;-52
2021/10/25 07:13:57;;;;;;;;;;;19.10;39.20;;;;;;8234162;28;19941;-52
2021/10/25 07:18:09;;;;;;;;;;;19.10;39.10;;;;;;8227962;28;19918;-52
2021/10/25 08:01:19;;;;;;;;;;;18.90;39.00;;;;;;8248644;28;20418;-53
2021/10/25 08:09:47;;;;;;;;;;;18.90;39.20;;;;;;8235715;28;19921;-52
2021/10/25 08:13:48;;;;;;;;;;;18.90;39.10;;;;;;8232381;28;19933;-52
2021/10/25 08:17:59;;;;;;;;;;;19.00;39.20;;;;;;8232264;28;19914;-52
2021/10/25 08:22:01;;;;;;;;;;;19.00;39.30;;;;;;8232839;28;19917;-52
2021/10/25 08:26:02;;;;;;;;;;;19.00;39.40;;;;;;8232703;28;19914;-53
2021/10/25 08:30:04;;;;;;;;;;;19.10;39.40;;;;;;8232274;28;19914;-51
2021/10/25 08:42:43;;;;;;;;;;;19.10;39.30;;;;;;8232511;28;19968;-50
2021/10/25 08:46:49;;;;;;;;;;;19.20;39.20;;;;;;8234899;28;19918;-52
2021/10/25 08:50:49;;;;;;;;;;;19.20;39.20;;;;;;8236767;28;20371;-53
2021/10/25 08:54:51;;;;;;;;;;;19.20;39.60;;;;;;8237347;28;19996;-52
2021/10/25 08:58:53;;;;;;;;;;;19.20;39.10;;;;;;8238166;28;20492;-52
2021/10/25 09:02:57;;;;;;;;;;;19.20;39.10;;;;;;8237742;28;19956;-53
2021/10/25 09:06:58;;;;;;;;;;;19.20;39.00;;;;;;8237996;28;19914;-53
2021/10/25 09:10:59;;;;;;;;;;;19.20;39.10;;;;;;8238271;28;19918;-52
2021/10/25 09:15:01;;;;;;;;;;;19.20;39.10;;;;;;8236975;28;19922;-53
2021/10/25 09:19:01;;;;;;;;;;;19.20;39.10;;;;;;8237312;28;19918;-53
2021/10/25 09:23:06;;;;;;;;;;;19.20;39.10;;;;;;8237196;28;19910;-51
2021/10/25 09:27:08;;;;;;;;;;;19.20;39.20;;;;;;8237035;28;19914;-53
2021/10/25 09:31:14;;;;;;;;;;;19.20;39.20;;;;;;8237725;28;19910;-52
2021/10/25 09:35:25;;;;;;;;;;;19.20;39.20;;;;;;8236980;28;19922;-51
2021/10/25 09:52:37;;;;;;;;;;;19.20;39.30;;;;;;8232106;28;19925;-53
2021/10/25 09:56:45;;;;;;;;;;;19.20;39.30;;;;;;8232249;28;20045;-53
2021/10/25 10:00:46;;;;;;;;;;;19.20;39.30;;;;;;8223613;28;19918;-53
2021/10/25 10:04:48;;;;;;;;;;;19.20;39.30;;;;;;8232344;28;19914;-51
2021/10/25 10:08:48;;;;;;;;;;;19.20;39.30;;;;;;8232755;28;19918;-53
2021/10/25 10:12:51;;;;;;;;;;;19.20;39.30;;;;;;8236219;28;20401;-52
2021/10/25 10:16:52;;;;;;;;;;;19.20;39.30;;;;;;8236210;28;20415;-53
2021/10/25 10:20:57;;;;;;;;;;;19.20;39.30;;;;;;8235561;28;19921;-50
2021/10/25 10:24:58;;;;;;;;;;;19.30;39.40;;;;;;8236001;28;20306;-52
2021/10/25 10:29:12;;;;;;;;;;;19.30;39.40;;;;;;8235767;28;19910;-51
2021/10/25 10:33:13;;;;;;;;;;;19.30;39.40;;;;;;8235130;28;20272;-51
2021/10/25 10:37:15;;;;;;;;;;;19.30;39.40;;;;;;8235438;28;19949;-53
2021/10/25 10:41:17;;;;;;;;;;;19.30;39.40;;;;;;8235294;28;20005;-53
2021/10/25 10:45:21;;;;;;;;;;;19.30;39.40;;;;;;8235086;28;19914;-53
2021/10/25 10:49:26;;;;;;;;;;;19.30;39.40;;;;;;8235257;28;20379;-52
2021/10/25 10:53:33;;;;;;;;;;;19.30;39.40;;;;;;8234825;28;19930;-54
2021/10/25 11:01:57;;;;;;;;;;;19.40;39.40;;;;;;8238488;28;19996;-53
2021/10/25 11:06:02;;;;;;;;;;;19.30;39.50;;;;;;8234084;28;19993;-53
2021/10/25 11:10:02;;;;;;;;;;;19.40;39.50;;;;;;8233806;28;19969;-53
2021/10/25 11:14:06;;;;;;;;;;;19.40;39.50;;;;;;8234150;28;19980;-53
2021/10/25 11:18:06;;;;;;;;;;;19.30;39.50;;;;;;8233933;28;20264;-53
2021/10/25 11:22:07;;;;;;;;;;;19.30;39.50;;;;;;8234279;28;19910;-54
2021/10/25 11:26:11;;;;;;;;;;;19.40;39.60;;;;;;8234022;28;20378;-52
2021/10/25 11:30:13;;;;;;;;;;;19.40;39.60;;;;;;8233906;28;19914;-53
2021/10/25 11:34:18;;;;;;;;;;;19.40;39.60;;;;;;8233909;28;19918;-54
2021/10/25 11:38:19;;;;;;;;;;;19.40;39.60;;;;;;8233423;28;19914;-53
2021/10/25 11:42:27;;;;;;;;;;;19.40;39.60;;;;;;8234497;28;19910;-53
2021/10/25 11:46:27;;;;;;;;;;;19.40;39.60;;;;;;8233688;28;20386;-52
2021/10/25 11:50:30;;;;;;;;;;;19.40;39.60;;;;;;8233177;28;19914;-53
2021/10/25 11:54:30;;;;;;;;;;;19.50;39.70;;;;;;8233296;28;19926;-50
2021/10/25 11:58:30;;;;;;;;;;;19.50;39.70;;;;;;8233445;28;19968;-53
2021/10/25 12:02:33;;;;;;;;;;;19.50;39.60;;;;;;8233121;28;20363;-53
2021/10/25 12:06:34;;;;;;;;;;;19.50;39.70;;;;;;8233527;28;19914;-54
2021/10/25 12:10:35;;;;;;;;;;;19.50;39.70;;;;;;8233516;28;19922;-53
2021/10/25 12:14:38;;;;;;;;;;;19.50;39.70;;;;;;8232729;28;19949;-51
2021/10/25 12:18:38;;;;;;;;;;;19.50;39.70;;;;;;8233237;28;19914;-52
2021/10/25 12:22:42;;;;;;;;;;;19.50;39.70;;;;;;8238039;28;20012;-52
2021/10/25 12:26:45;;;;;;;;;;;19.50;39.70;;;;;;8239067;28;19973;-50
2021/10/25 12:30:46;;;;;;;;;;;19.50;39.70;;;;;;8239538;28;19914;-53
2021/10/25 12:34:51;;;;;;;;;;;19.50;39.70;;;;;;8239146;28;19977;-52
2021/10/25 12:38:54;;;;;;;;;;;19.50;39.70;;;;;;8238856;28;19961;-50
2021/10/25 12:42:59;;;;;;;;;;;19.50;39.70;;;;;;8239265;28;20025;-51
2021/10/25 12:47:07;;;;;;;;;;;19.50;39.70;;;;;;8242029;28;19914;-53
2021/10/25 12:51:07;;;;;;;;;;;19.50;39.80;;;;;;8238473;28;19918;-51
2021/10/25 12:55:08;;;;;;;;;;;19.50;39.80;;;;;;8238728;28;20425;-53
2021/10/25 12:59:09;;;;;;;;;;;19.50;39.80;;;;;;8238030;28;19914;-51
2021/10/25 13:03:11;;;;;;;;;;;19.50;39.80;;;;;;8238334;28;19917;-54
2021/10/25 13:07:15;;;;;;;;;;;19.60;39.80;;;;;;8237765;28;19914;-50
2021/10/25 13:11:15;;;;;;;;;;;19.60;39.80;;;;;;8237780;28;19914;-54
2021/10/25 13:15:15;;;;;;;;;;;19.60;39.80;;;;;;8237914;28;20299;-50
2021/10/25 13:19:17;;;;;;;;;;;19.60;39.80;;;;;;8238009;28;19917;-51
2021/10/25 13:23:22;;;;;;;;;;;19.60;39.80;;;;;;8237354;28;19977;-53
2021/10/25 13:27:22;;;;;;;;;;;19.60;39.90;;;;;;8237949;28;20060;-50
2021/10/25 13:31:23;;;;;;;;;;;19.60;39.80;;;;;;8236808;28;19914;-54
2021/10/25 13:35:23;;;;;;;;;;;19.60;39.80;;;;;;8236737;28;19996;-53
2021/10/25 13:39:24;;;;;;;;;;;19.60;39.90;;;;;;8237096;28;19932;-53
2021/10/25 13:43:24;;;;;;;;;;;19.60;39.80;;;;;;8237502;28;19914;-53
2021/10/25 13:47:26;;;;;;;;;;;19.70;39.80;;;;;;8236764;28;19914;-53
2021/10/25 13:51:26;;;;;;;;;;;19.70;39.90;;;;;;8237110;28;19914;-51
2021/10/25 13:55:27;;;;;;;;;;;19.70;39.90;;;;;;8236364;28;20064;-53
2021/10/25 13:59:27;;;;;;;;;;;19.70;39.90;;;;;;8236172;28;19914;-53
2021/10/25 14:03:28;;;;;;;;;;;19.70;39.90;;;;;;8236508;28;19918;-52
2021/10/25 14:07:32;;;;;;;;;;;19.70;39.90;;;;;;8236524;28;19918;-52
2021/10/25 14:11:40;;;;;;;;;;;19.70;39.90;;;;;;8235722;28;20275;-54
2021/10/25 14:15:49;;;;;;;;;;;19.70;39.90;;;;;;8242700;28;19938;-53
2021/10/25 14:19:50;;;;;;;;;;;19.70;40.00;;;;;;8235898;28;20307;-52
2021/10/25 14:23:50;;;;;;;;;;;19.70;40.00;;;;;;8235680;28;20064;-54
2021/10/25 14:27:50;;;;;;;;;;;19.70;39.90;;;;;;8236334;28;19921;-52
2021/10/25 14:31:52;;;;;;;;;;;19.70;39.90;;;;;;8235739;28;19914;-53
2021/10/25 14:35:53;;;;;;;;;;;19.70;40.00;;;;;;8235310;28;20298;-51
2021/10/25 14:39:54;;;;;;;;;;;19.70;40.00;;;;;;8235305;28;19910;-54
2021/10/25 14:43:58;;;;;;;;;;;19.70;40.00;;;;;;8234598;28;19921;-51
2021/10/25 14:48:23;;;;;;;;;;;19.70;40.00;;;;;;8234833;28;19918;-54
2021/10/25 14:56:42;;;;;;;;;;;19.70;40.10;;;;;;8235498;28;20309;-52
2021/10/25 15:00:43;;;;;;;;;;;19.70;40.10;;;;;;8234714;28;19914;-51
2021/10/25 15:04:44;;;;;;;;;;;19.70;40.10;;;;;;8234622;28;20410;-53
2021/10/25 15:08:44;;;;;;;;;;;19.70;40.10;;;;;;8234327;28;19986;-53
2021/10/25 15:12:45;;;;;;;;;;;19.70;40.10;;;;;;8234312;28;19921;-52
2021/10/25 15:16:45;;;;;;;;;;;19.70;40.10;;;;;;8233779;28;19929;-50
2021/10/25 15:20:46;;;;;;;;;;;19.70;40.10;;;;;;8233742;28;19973;-52
2021/10/25 15:24:50;;;;;;;;;;;19.70;40.20;;;;;;8234184;28;19921;-51
2021/10/25 15:28:51;;;;;;;;;;;19.70;40.10;;;;;;8233871;28;20322;-52
2021/10/25 15:32:51;;;;;;;;;;;19.70;40.20;;;;;;8233063;28;19969;-50
2021/10/25 15:36:52;;;;;;;;;;;19.70;40.20;;;;;;8233787;28;19929;-51
2021/10/25 15:40:52;;;;;;;;;;;19.70;40.20;;;;;;8233676;28;19914;-48
2021/10/25 15:44:54;;;;;;;;;;;19.70;40.20;;;;;;8233010;28;19961;-52
2021/10/25 15:48:54;;;;;;;;;;;19.70;40.30;;;;;;8233736;28;20330;-51
2021/10/25 15:52:57;;;;;;;;;;;19.70;40.30;;;;;;8233300;28;19925;-48
2021/10/25 15:56:58;;;;;;;;;;;19.70;40.30;;;;;;8232580;28;20284;-51
2021/10/25 16:00:58;;;;;;;;;;;19.70;40.30;;;;;;8233429;28;19925;-52
2021/10/25 16:04:59;;;;;;;;;;;19.70;40.40;;;;;;8232333;28;19961;-52
2021/10/25 16:09:00;;;;;;;;;;;19.70;40.40;;;;;;8232795;28;19910;-51
2021/10/25 16:13:00;;;;;;;;;;;19.70;40.40;;;;;;8232815;28;19961;-50
2021/10/25 16:17:02;;;;;;;;;;;19.70;40.40;;;;;;8232914;28;20016;-52
2021/10/25 16:21:02;;;;;;;;;;;19.70;40.40;;;;;;8233138;28;20009;-51
2021/10/25 16:25:03;;;;;;;;;;;19.70;40.30;;;;;;8233002;28;19918;-50
2021/10/25 16:29:03;;;;;;;;;;;19.80;40.40;;;;;;8233145;28;19917;-50
2021/10/25 16:33:04;;;;;;;;;;;19.80;40.30;;;;;;8232190;28;20356;-49
2021/10/25 16:37:06;;;;;;;;;;;19.80;40.30;;;;;;8232904;28;19921;-51
2021/10/25 16:41:06;;;;;;;;;;;19.80;40.30;;;;;;8232263;28;19914;-48
2021/10/25 16:45:07;;;;;;;;;;;19.80;40.90;;;;;;8232250;28;19913;-51
2021/10/25 16:49:14;;;;;;;;;;;19.80;40.30;;;;;;8232316;28;19916;-50
2021/10/25 17:10:13;;;;;;;;;;;19.80;40.40;;;;;;8238501;28;19936;-50
2021/10/25 17:14:13;;;;;;;;;;;19.80;40.40;;;;;;8233811;28;19922;-53
2021/10/25 17:18:14;;;;;;;;;;;19.80;40.40;;;;;;8237557;28;19961;-52
2021/10/25 17:22:18;;;;;;;;;;;19.80;40.90;;;;;;8237588;28;19914;-53
2021/10/25 17:26:19;;;;;;;;;;;19.80;40.40;;;;;;8237150;28;19918;-53
2021/10/25 17:30:19;;;;;;;;;;;19.80;40.50;;;;;;8237146;28;19936;-51
2021/10/25 17:34:20;;;;;;;;;;;19.80;40.50;;;;;;8237322;28;19925;-53
2021/10/25 17:38:20;;;;;;;;;;;19.80;40.50;;;;;;8236517;28;19918;-53
2021/10/25 17:42:21;;;;;;;;;;;19.80;40.50;;;;;;8236544;28;20383;-52
2021/10/25 17:46:21;;;;;;;;;;;19.80;40.60;;;;;;8236222;28;19914;-52
2021/10/25 17:50:22;;;;;;;;;;;19.80;40.50;;;;;;8236318;28;19914;-53
2021/10/25 17:54:25;;;;;;;;;;;19.80;41.10;;;;;;8236436;28;19922;-52
2021/10/25 17:58:25;;;;;;;;;;;19.80;40.50;;;;;;8235741;28;19915;-53
2021/10/25 18:02:26;;;;;;;;;;;19.70;40.50;;;;;;8235213;28;19933;-50
2021/10/25 18:06:28;;;;;;;;;;;19.80;40.60;;;;;;8235828;28;19921;-53
2021/10/25 18:10:28;;;;;;;;;;;19.80;40.60;;;;;;8235683;28;19973;-51
2021/10/25 18:14:28;;;;;;;;;;;19.80;40.50;;;;;;8233883;28;20363;-53
2021/10/25 18:18:29;;;;;;;;;;;19.70;40.50;;;;;;8235934;28;19961;-52
2021/10/25 18:22:29;;;;;;;;;;;19.70;40.50;;;;;;8234235;28;20291;-53
2021/10/25 18:26:30;;;;;;;;;;;19.70;40.50;;;;;;8234038;28;19984;-50
2021/10/25 18:30:31;;;;;;;;;;;19.80;40.60;;;;;;8235391;28;19910;-50
2021/10/25 18:34:33;;;;;;;;;;;19.70;40.50;;;;;;8235228;28;19922;-48
2021/10/25 18:38:33;;;;;;;;;;;19.70;40.50;;;;;;8217399;28;19917;-52
2021/10/25 18:42:34;;;;;;;;;;;19.70;40.50;;;;;;8235212;28;19985;-49
2021/10/25 18:46:35;;;;;;;;;;;19.70;40.50;;;;;;8233561;28;20040;-51
2021/10/25 18:50:36;;;;;;;;;;;19.70;40.60;;;;;;8234748;28;19933;-52
2021/10/25 18:54:36;;;;;;;;;;;19.70;40.50;;;;;;8235305;28;20280;-50
2021/10/25 18:58:37;;;;;;;;;;;19.70;40.50;;;;;;8234811;28;19993;-52
2021/10/25 19:02:38;;;;;;;;;;;19.70;40.50;;;;;;8234093;28;19914;-52
2021/10/25 19:06:38;;;;;;;;;;;19.70;40.50;;;;;;8234547;28;19917;-52
2021/10/25 19:10:39;;;;;;;;;;;19.70;40.60;;;;;;8233126;28;19922;-53
2021/10/25 19:14:40;;;;;;;;;;;19.70;40.50;;;;;;8233057;28;20013;-52
2021/10/25 19:18:40;;;;;;;;;;;19.70;40.50;;;;;;8233308;28;20279;-53
2021/10/25 19:22:42;;;;;;;;;;;19.70;40.50;;;;;;8233476;28;19997;-51
2021/10/25 19:26:42;;;;;;;;;;;19.70;40.60;;;;;;8232321;28;19918;-52
2021/10/25 19:30:44;;;;;;;;;;;19.70;40.50;;;;;;8233573;28;19917;-53
2021/10/25 19:34:48;;;;;;;;;;;19.70;40.50;;;;;;8234092;28;19929;-53
2021/10/25 19:38:49;;;;;;;;;;;19.70;40.50;;;;;;8233467;28;19921;-50
2021/10/25 19:42:50;;;;;;;;;;;19.70;40.50;;;;;;8233854;28;20410;-51
2021/10/25 19:46:51;;;;;;;;;;;19.70;40.50;;;;;;8233556;28;19969;-52
2021/10/25 19:50:55;;;;;;;;;;;19.70;40.50;;;;;;8233350;28;19938;-49
2021/10/25 19:54:56;;;;;;;;;;;19.70;40.50;;;;;;8233555;28;19929;-54
2021/10/25 19:58:56;;;;;;;;;;;19.70;40.60;;;;;;8233572;28;19942;-52
2021/10/25 20:02:57;;;;;;;;;;;19.70;40.60;;;;;;8232883;28;19914;-52
2021/10/25 20:06:58;;;;;;;;;;;19.70;40.60;;;;;;8233352;28;19917;-53
2021/10/25 20:10:59;;;;;;;;;;;19.60;40.50;;;;;;8233301;28;19936;-52
2021/10/25 20:14:59;;;;;;;;;;;19.70;40.60;;;;;;8232902;28;19926;-51
2021/10/25 20:19:00;;;;;;;;;;;19.70;40.50;;;;;;8233531;28;19917;-53
2021/10/25 20:23:00;;;;;;;;;;;19.70;40.50;;;;;;8233031;28;19964;-53
2021/10/25 20:27:03;;;;;;;;;;;19.70;40.50;;;;;;8232686;28;19918;-53
2021/10/25 20:31:04;;;;;;;;;;;19.70;40.50;;;;;;8233140;28;19921;-53
2021/10/25 20:35:05;;;;;;;;;;;19.60;40.50;;;;;;8233212;28;19984;-54
2021/10/25 20:39:06;;;;;;;;;;;19.60;40.50;;;;;;8232356;28;19914;-53
2021/10/25 20:43:06;;;;;;;;;;;19.70;40.50;;;;;;8236918;28;19914;-54
2021/10/25 20:47:07;;;;;;;;;;;19.70;40.50;;;;;;8238582;28;19910;-50
2021/10/25 20:51:08;;;;;;;;;;;19.70;40.40;;;;;;8239121;28;19910;-53
2021/10/25 20:55:09;;;;;;;;;;;19.70;40.40;;;;;;8238814;28;19922;-50
2021/10/25 20:59:09;;;;;;;;;;;19.70;40.40;;;;;;8238070;28;19914;-53
2021/10/25 21:03:11;;;;;;;;;;;19.70;40.40;;;;;;8238373;28;20279;-50
2021/10/25 21:07:11;;;;;;;;;;;19.70;40.40;;;;;;8238420;28;19910;-52
2021/10/25 21:11:12;;;;;;;;;;;19.70;40.40;;;;;;8237979;28;19921;-50
2021/10/25 21:15:13;;;;;;;;;;;19.70;40.40;;;;;;8238194;28;20291;-51
2021/10/25 21:19:13;;;;;;;;;;;19.70;40.30;;;;;;8237863;28;19914;-51
2021/10/25 21:23:14;;;;;;;;;;;19.70;40.30;;;;;;8237443;28;19993;-53
2021/10/25 21:27:14;;;;;;;;;;;19.70;40.40;;;;;;8237680;28;19914;-53
2021/10/25 21:31:16;;;;;;;;;;;19.60;40.30;;;;;;8237957;28;20283;-50
2021/10/25 21:35:16;;;;;;;;;;;19.60;40.30;;;;;;8237113;28;19922;-51
2021/10/25 21:39:17;;;;;;;;;;;19.60;40.40;;;;;;8237657;28;19920;-51
2021/10/25 21:43:17;;;;;;;;;;;19.60;40.30;;;;;;8237202;28;19910;-53
2021/10/25 21:47:18;;;;;;;;;;;19.60;40.40;;;;;;8236568;28;19977;-50
2021/10/25 21:51:18;;;;;;;;;;;19.60;40.40;;;;;;8237452;28;19914;-53
2021/10/25 21:55:19;;;;;;;;;;;19.50;40.40;;;;;;8236473;28;20008;-53
2021/10/25 21:59:19;;;;;;;;;;;19.50;40.40;;;;;;8236280;28;19941;-51
2021/10/25 22:03:22;;;;;;;;;;;19.50;40.40;;;;;;8224747;28;19914;-52
2021/10/25 22:07:22;;;;;;;;;;;19.50;40.40;;;;;;8236607;28;19928;-53
2021/10/25 22:11:23;;;;;;;;;;;19.50;40.40;;;;;;8235468;28;19910;-52
2021/10/25 22:15:23;;;;;;;;;;;19.50;40.40;;;;;;8236649;28;20008;-53
2021/10/25 22:19:24;;;;;;;;;;;19.50;40.40;;;;;;8236147;28;19918;-51
2021/10/25 22:23:27;;;;;;;;;;;19.50;40.40;;;;;;8235575;28;19920;-51
2021/10/25 22:27:27;;;;;;;;;;;19.50;40.40;;;;;;8235630;28;19961;-53
2021/10/25 22:31:28;;;;;;;;;;;19.50;40.40;;;;;;8236076;28;19910;-53
2021/10/25 22:35:28;;;;;;;;;;;19.50;40.40;;;;;;8235253;28;19977;-52
2021/10/25 22:39:28;;;;;;;;;;;19.50;40.40;;;;;;8235444;28;19918;-54
2021/10/25 22:43:29;;;;;;;;;;;19.50;40.40;;;;;;8235461;28;19925;-54
2021/10/25 22:47:29;;;;;;;;;;;19.50;40.40;;;;;;8234730;28;19914;-54
2021/10/25 22:51:30;;;;;;;;;;;19.50;40.40;;;;;;8235347;28;19910;-54
2021/10/25 22:55:31;;;;;;;;;;;19.50;40.40;;;;;;8234933;28;20008;-54
2021/10/25 22:59:31;;;;;;;;;;;19.40;40.40;;;;;;8234500;28;19914;-51
2021/10/25 23:03:32;;;;;;;;;;;19.40;40.40;;;;;;8234006;28;19914;-51
2021/10/25 23:07:33;;;;;;;;;;;19.40;40.40;;;;;;8234481;28;19910;-53
2021/10/25 23:11:33;;;;;;;;;;;19.40;40.40;;;;;;8234380;28;19914;-51
2021/10/25 23:15:34;;;;;;;;;;;19.40;40.40;;;;;;8234386;28;19972;-53
2021/10/25 23:19:36;;;;;;;;;;;19.40;40.50;;;;;;8234295;28;20102;-54
2021/10/25 23:23:36;;;;;;;;;;;19.40;40.90;;;;;;8233842;28;19914;-53
2021/10/25 23:27:37;;;;;;;;;;;19.40;40.40;;;;;;8234076;28;19910;-54
2021/10/25 23:31:38;;;;;;;;;;;19.40;40.40;;;;;;8234251;28;20287;-52
2021/10/25 23:35:38;;;;;;;;;;;19.40;40.40;;;;;;8233683;28;20459;-53
2021/10/25 23:39:39;;;;;;;;;;;19.40;40.30;;;;;;8233877;28;20390;-50
2021/10/25 23:43:39;;;;;;;;;;;19.40;40.40;;;;;;8233456;28;19914;-53
2021/10/25 23:47:40;;;;;;;;;;;19.30;40.40;;;;;;8233426;28;20013;-50
2021/10/25 23:51:40;;;;;;;;;;;19.30;40.40;;;;;;8233816;28;19925;-52
2021/10/25 23:55:41;;;;;;;;;;;19.30;40.40;;;;;;8233614;28;19922;-53
2021/10/25 23:59:41;;;;;;;;;;;19.30;40.40;;;;;;8232983;28;19922;-53
